createdAt,value
2018-04-08T00:00:02.860Z,36.2
2018-04-08T00:01:08.123Z,36.1
2018-04-08T00:02:13.486Z,36.1
2018-04-08T00:03:17.851Z,36.2
2018-04-08T00:04:23.212Z,36.2
2018-04-08T00:05:28.581Z,36.2
2018-04-08T00:06:32.853Z,36.1
2018-04-08T00:07:37.115Z,36.2
2018-04-08T00:08:42.481Z,36
2018-04-08T00:09:47.842Z,36.2
2018-04-08T00:10:52.106Z,36.2
2018-04-08T00:11:56.465Z,36.2
2018-04-08T00:13:01.726Z,36.2
2018-04-08T00:14:07.000Z,36.1
2018-04-08T00:15:11.165Z,36.2
2018-04-08T00:16:15.528Z,36.2
2018-04-08T00:17:20.893Z,36.8
2018-04-08T00:18:26.257Z,36.2
2018-04-08T00:19:30.516Z,36.2
2018-04-08T00:20:34.682Z,36.2
2018-04-08T00:21:38.937Z,36.2
2018-04-08T00:22:44.196Z,36.2
2018-04-08T00:23:49.565Z,36.1
2018-04-08T00:24:53.829Z,36.2
2018-04-08T00:25:58.193Z,36.2
2018-04-08T00:27:06.455Z,36.2
2018-04-08T00:28:11.764Z,36.3
2018-04-08T00:29:17.035Z,36.2
2018-04-08T00:30:21.209Z,36.3
2018-04-08T00:31:25.573Z,36.3
2018-04-08T00:32:30.839Z,36.2
2018-04-08T00:33:36.011Z,36.8
2018-04-08T00:34:41.281Z,36.2
2018-04-08T00:35:45.641Z,36.2
2018-04-08T00:36:50.014Z,36.2
2018-04-08T00:37:55.274Z,36.1
2018-04-08T00:39:00.642Z,36
2018-04-08T00:40:05.007Z,36.2
2018-04-08T00:41:10.272Z,36.2
2018-04-08T00:42:15.442Z,36.2
2018-04-08T00:43:20.611Z,36.2
2018-04-08T00:44:25.991Z,36.2
2018-04-08T00:45:30.156Z,36.2
2018-04-08T00:46:34.413Z,36.2
2018-04-08T00:47:39.681Z,36.2
2018-04-08T00:48:45.951Z,36.1
2018-04-08T00:49:51.217Z,36.2
2018-04-08T00:50:55.501Z,36.2
2018-04-08T00:51:59.666Z,36.2
2018-04-08T00:53:04.935Z,36.2
2018-04-08T00:54:10.300Z,36.2
2018-04-08T00:55:14.563Z,36.2
2018-04-08T00:56:18.824Z,36.2
2018-04-08T00:57:23.081Z,36.2
2018-04-08T00:58:28.455Z,36.2
2018-04-08T00:59:33.713Z,36.2
2018-04-08T01:00:38.015Z,36.2
2018-04-08T01:01:42.273Z,36.2
2018-04-08T01:02:47.529Z,36.2
2018-04-08T01:03:52.901Z,36.1
2018-04-08T01:04:57.162Z,36.2
2018-04-08T01:06:01.421Z,36.2
2018-04-08T01:07:06.682Z,36.2
2018-04-08T01:08:12.054Z,36.2
2018-04-08T01:09:16.341Z,36.2
2018-04-08T01:10:20.632Z,36.2
2018-04-08T01:11:25.898Z,36.2
2018-04-08T01:12:31.161Z,36.2
2018-04-08T01:13:36.335Z,36.2
2018-04-08T01:14:40.595Z,36.3
2018-04-08T01:15:44.960Z,36.3
2018-04-08T01:16:50.226Z,36.2
2018-04-08T01:17:55.588Z,36.2
2018-04-08T01:18:59.854Z,36.1
2018-04-08T01:20:04.013Z,36.2
2018-04-08T01:21:08.172Z,36.2
2018-04-08T01:22:13.437Z,36.2
2018-04-08T01:23:18.703Z,36.2
2018-04-08T01:24:24.061Z,36.3
2018-04-08T01:25:28.316Z,36.3
2018-04-08T01:26:32.675Z,36.2
2018-04-08T01:27:40.959Z,36.3
2018-04-08T01:28:46.232Z,36.1
2018-04-08T01:29:50.495Z,36.3
2018-04-08T01:30:54.754Z,36.2
2018-04-08T01:31:59.013Z,36.3
2018-04-08T01:33:04.389Z,36.3
2018-04-08T01:34:09.750Z,36.3
2018-04-08T01:35:14.111Z,36.3
2018-04-08T01:36:19.468Z,36.3
2018-04-08T01:37:24.730Z,36.3
2018-04-08T01:38:29.002Z,36.3
2018-04-08T01:39:33.363Z,36.3
2018-04-08T01:40:38.728Z,36.2
2018-04-08T01:41:43.982Z,36.2
2018-04-08T01:42:48.239Z,36.2
2018-04-08T01:43:52.603Z,36.1
2018-04-08T01:44:57.861Z,36.2
2018-04-08T01:46:03.224Z,36.3
2018-04-08T01:47:07.586Z,36.2
2018-04-08T01:48:12.078Z,36.3
2018-04-08T01:49:17.344Z,36.2
2018-04-08T01:50:21.601Z,36.8
2018-04-08T01:51:25.961Z,36.2
2018-04-08T01:52:31.222Z,36.2
2018-04-08T01:53:36.689Z,36.2
2018-04-08T01:54:40.955Z,36.2
2018-04-08T01:55:45.320Z,36.2
2018-04-08T01:56:50.681Z,36.2
2018-04-08T01:57:56.035Z,36.2
2018-04-08T01:59:00.296Z,36.1
2018-04-08T02:00:04.653Z,36.2
2018-04-08T02:01:09.920Z,36.2
2018-04-08T02:02:15.181Z,36.2
2018-04-08T02:03:19.455Z,36.2
2018-04-08T02:04:23.726Z,36.2
2018-04-08T02:05:29.093Z,36.3
2018-04-08T02:06:34.454Z,36.2
2018-04-08T02:07:38.807Z,36.2
2018-04-08T02:08:43.171Z,36.1
2018-04-08T02:09:48.531Z,36.2
2018-04-08T02:10:52.790Z,36.2
2018-04-08T02:12:00.262Z,36.2
2018-04-08T02:13:05.632Z,36.3
2018-04-08T02:14:10.889Z,36.3
2018-04-08T02:15:15.254Z,36.3
2018-04-08T02:16:19.519Z,36.3
2018-04-08T02:17:24.781Z,36.3
2018-04-08T02:18:29.953Z,36.3
2018-04-08T02:19:35.223Z,36.3
2018-04-08T02:20:39.590Z,36.3
2018-04-08T02:21:43.952Z,36.3
2018-04-08T02:22:49.317Z,36.3
2018-04-08T02:23:53.492Z,36.2
2018-04-08T02:24:57.750Z,36.3
2018-04-08T02:26:02.012Z,36.3
2018-04-08T02:27:07.279Z,36.3
2018-04-08T02:28:14.560Z,36.3
2018-04-08T02:29:19.822Z,36.3
2018-04-08T02:30:24.079Z,36.3
2018-04-08T02:31:28.366Z,36.4
2018-04-08T02:32:33.721Z,36.3
2018-04-08T02:33:39.091Z,36.2
2018-04-08T02:34:43.354Z,36.3
2018-04-08T02:35:47.714Z,36.3
2018-04-08T02:36:53.088Z,36.3
2018-04-08T02:37:57.352Z,36.3
2018-04-08T02:39:01.727Z,36.2
2018-04-08T02:40:06.994Z,36.3
2018-04-08T02:41:15.453Z,36.3
2018-04-08T02:42:19.714Z,36.4
2018-04-08T02:43:23.988Z,36.3
2018-04-08T02:44:29.371Z,36.4
2018-04-08T02:45:34.647Z,36.4
2018-04-08T02:46:38.910Z,36.4
2018-04-08T02:47:43.273Z,36.4
2018-04-08T02:48:48.448Z,36.3
2018-04-08T02:49:53.814Z,36.4
2018-04-08T02:50:59.178Z,36.4
2018-04-08T02:52:03.439Z,36.4
2018-04-08T02:53:08.708Z,36.4
2018-04-08T02:54:14.079Z,36.4
2018-04-08T02:55:19.546Z,36.5
2018-04-08T02:56:23.806Z,36.4
2018-04-08T02:57:29.062Z,36.4
2018-04-08T02:58:34.431Z,36.4
2018-04-08T02:59:38.703Z,36.4
2018-04-08T03:00:42.875Z,36.4
2018-04-08T03:01:47.132Z,36.4
2018-04-08T03:02:52.398Z,36.4
2018-04-08T03:03:57.676Z,36.3
2018-04-08T03:05:01.943Z,36.4
2018-04-08T03:06:06.305Z,36.4
2018-04-08T03:07:11.673Z,36.4
2018-04-08T03:08:17.046Z,36.4
2018-04-08T03:09:21.306Z,36.4
2018-04-08T03:10:25.562Z,36.4
2018-04-08T03:11:30.817Z,36.4
2018-04-08T03:12:36.082Z,36.4
2018-04-08T03:13:41.357Z,36.3
2018-04-08T03:14:45.623Z,36.4
2018-04-08T03:15:49.979Z,36.4
2018-04-08T03:16:55.235Z,36.4
2018-04-08T03:18:00.598Z,36.3
2018-04-08T03:19:04.969Z,36.3
2018-04-08T03:20:10.332Z,36.4
2018-04-08T03:21:15.712Z,36.4
2018-04-08T03:22:20.066Z,36.4
2018-04-08T03:23:24.334Z,36.4
2018-04-08T03:24:29.696Z,36.4
2018-04-08T03:25:34.950Z,36.5
2018-04-08T03:26:39.211Z,36.5
2018-04-08T03:27:43.573Z,36.4
2018-04-08T03:28:51.849Z,36.2
2018-04-08T03:29:57.207Z,36.4
2018-04-08T03:31:01.464Z,36.4
2018-04-08T03:32:05.722Z,36.4
2018-04-08T03:33:10.086Z,36.4
2018-04-08T03:34:15.341Z,36.4
2018-04-08T03:35:20.708Z,36.4
2018-04-08T03:36:24.978Z,36.4
2018-04-08T03:37:29.234Z,36.4
2018-04-08T03:38:34.508Z,36.4
2018-04-08T03:39:39.877Z,36.4
2018-04-08T03:40:44.133Z,36.4
2018-04-08T03:41:48.496Z,36.4
2018-04-08T03:42:53.856Z,36.4
2018-04-08T03:43:59.121Z,36.3
2018-04-08T03:45:03.486Z,36.4
2018-04-08T03:46:08.845Z,36.4
2018-04-08T03:47:14.205Z,36.4
2018-04-08T03:48:18.475Z,36.4
2018-04-08T03:49:22.741Z,36.5
2018-04-08T03:50:28.006Z,36.5
2018-04-08T03:51:33.265Z,36.4
2018-04-08T03:52:38.527Z,36.4
2018-04-08T03:53:42.802Z,36.4
2018-04-08T03:54:47.074Z,36.5
2018-04-08T03:55:52.432Z,36.5
2018-04-08T03:56:57.696Z,36.4
2018-04-08T03:58:02.070Z,36.4
2018-04-08T03:59:06.430Z,36.4
2018-04-08T04:00:11.685Z,36.4
2018-04-08T04:01:17.050Z,36.4
2018-04-08T04:02:21.316Z,36.4
2018-04-08T04:03:25.583Z,36.5
2018-04-08T04:04:30.842Z,36.5
2018-04-08T04:05:36.109Z,36.5
2018-04-08T04:06:41.369Z,36.5
2018-04-08T04:07:45.633Z,36.4
2018-04-08T04:08:49.925Z,36.4
2018-04-08T04:09:55.188Z,36.5
2018-04-08T04:11:00.452Z,36.5
2018-04-08T04:12:05.815Z,36.5
2018-04-08T04:13:10.190Z,36.5
2018-04-08T04:14:15.348Z,36.5
2018-04-08T04:15:20.606Z,36.5
2018-04-08T04:16:25.963Z,36.5
2018-04-08T04:17:30.225Z,36.5
2018-04-08T04:18:34.492Z,36.5
2018-04-08T04:19:39.758Z,36.5
2018-04-08T04:20:45.023Z,36.5
2018-04-08T04:21:49.384Z,36.5
2018-04-08T04:22:53.741Z,36.5
2018-04-08T04:23:59.006Z,36.4
2018-04-08T04:25:04.271Z,36.5
2018-04-08T04:26:08.642Z,36.5
2018-04-08T04:27:13.001Z,37.1
2018-04-08T04:28:18.279Z,36.5
2018-04-08T04:29:25.651Z,36.5
2018-04-08T04:30:30.017Z,36.5
2018-04-08T04:31:34.270Z,36.5
2018-04-08T04:32:39.528Z,36.5
2018-04-08T04:33:44.903Z,36.4
2018-04-08T04:34:49.369Z,36.5
2018-04-08T04:35:54.634Z,36.5
2018-04-08T04:36:59.890Z,36.5
2018-04-08T04:38:05.060Z,36.5
2018-04-08T04:39:09.222Z,36.5
2018-04-08T04:40:13.394Z,36.5
2018-04-08T04:41:17.660Z,36.5
2018-04-08T04:42:25.016Z,36.5
2018-04-08T04:43:30.393Z,36.5
2018-04-08T04:44:34.753Z,36.5
2018-04-08T04:45:39.164Z,36.5
2018-04-08T04:46:44.424Z,36.5
2018-04-08T04:47:49.687Z,36.5
2018-04-08T04:48:53.954Z,36.4
2018-04-08T04:49:58.250Z,36.5
2018-04-08T04:51:03.612Z,36.5
2018-04-08T04:52:08.869Z,36.5
2018-04-08T04:53:13.146Z,36.5
2018-04-08T04:54:17.405Z,36.5
2018-04-08T04:55:21.725Z,36.5
2018-04-08T04:56:46.459Z,36.5
2018-04-08T04:57:51.717Z,36.5
2018-04-08T04:58:56.087Z,36.4
2018-04-08T05:00:00.351Z,36.5
2018-04-08T05:01:05.613Z,36.5
2018-04-08T05:02:10.972Z,36.6
2018-04-08T05:03:15.346Z,36.5
2018-04-08T05:04:19.608Z,36.5
2018-04-08T05:05:24.965Z,36.5
2018-04-08T05:06:30.228Z,36.5
2018-04-08T05:07:34.495Z,36.5
2018-04-08T05:08:38.806Z,36.4
2018-04-08T05:09:47.069Z,36.5
2018-04-08T05:10:52.436Z,36.5
2018-04-08T05:11:57.701Z,36.5
2018-04-08T05:13:02.071Z,36.5
2018-04-08T05:14:06.432Z,36.5
2018-04-08T05:15:11.795Z,36.5
2018-04-08T05:16:16.063Z,36.5
2018-04-08T05:17:20.428Z,36.5
2018-04-08T05:18:25.691Z,36.5
2018-04-08T05:19:30.958Z,36.5
2018-04-08T05:20:35.367Z,37.1
2018-04-08T05:21:39.625Z,36.5
2018-04-08T05:22:44.938Z,36.5
2018-04-08T05:23:50.336Z,36.4
2018-04-08T05:24:54.702Z,36.5
2018-04-08T05:25:58.967Z,36.5
2018-04-08T05:27:04.233Z,36.5
2018-04-08T05:28:09.398Z,36.5
2018-04-08T05:29:14.665Z,36.5
2018-04-08T05:30:19.068Z,36.5
2018-04-08T05:31:24.329Z,36.5
2018-04-08T05:32:29.593Z,36.5
2018-04-08T05:33:34.858Z,36.5
2018-04-08T05:34:39.220Z,36.5
2018-04-08T05:35:43.505Z,36.5
2018-04-08T05:36:48.761Z,36.5
2018-04-08T05:37:54.027Z,36.5
2018-04-08T05:38:58.297Z,36.4
2018-04-08T05:40:02.565Z,36.5
2018-04-08T05:41:07.927Z,36.5
2018-04-08T05:42:13.289Z,36.5
2018-04-08T05:43:17.469Z,36.5
2018-04-08T05:44:21.737Z,36.5
2018-04-08T05:45:26.010Z,36.5
2018-04-08T05:46:31.381Z,36.6
2018-04-08T05:47:36.742Z,36.5
2018-04-08T05:48:41.115Z,36.4
2018-04-08T05:49:46.384Z,36.5
2018-04-08T05:50:51.648Z,36.5
2018-04-08T05:51:56.915Z,36.5
2018-04-08T05:53:01.281Z,36.4
2018-04-08T05:54:05.555Z,36.5
2018-04-08T05:55:10.814Z,36.5
2018-04-08T05:56:16.173Z,36.6
2018-04-08T05:57:24.434Z,36.4
2018-04-08T05:58:28.911Z,36.4
2018-04-08T05:59:34.284Z,36.6
2018-04-08T06:00:39.549Z,36.6
2018-04-08T06:01:43.808Z,36.5
2018-04-08T06:02:48.072Z,36.5
2018-04-08T06:03:53.343Z,36.4
2018-04-08T06:04:58.598Z,36.4
2018-04-08T06:06:03.856Z,36.6
2018-04-08T06:07:08.120Z,36.5
2018-04-08T06:08:12.396Z,37.1
2018-04-08T06:09:17.654Z,36.5
2018-04-08T06:10:23.011Z,36.4
2018-04-08T06:11:27.377Z,36.4
2018-04-08T06:12:31.644Z,36.4
2018-04-08T06:13:36.909Z,36.4
2018-04-08T06:14:42.178Z,36.5
2018-04-08T06:15:46.438Z,36.5
2018-04-08T06:16:50.803Z,36.4
2018-04-08T06:17:56.171Z,36.4
2018-04-08T06:19:01.448Z,36.4
2018-04-08T06:20:05.811Z,36.4
2018-04-08T06:21:10.270Z,36.4
2018-04-08T06:22:15.558Z,36.5
2018-04-08T06:23:19.932Z,36.4
2018-04-08T06:24:24.196Z,36.4
2018-04-08T06:25:29.459Z,36.4
2018-04-08T06:26:34.818Z,36.4
2018-04-08T06:27:39.077Z,36.4
2018-04-08T06:28:43.342Z,36.3
2018-04-08T06:29:48.700Z,36.4
2018-04-08T06:30:53.957Z,36.4
2018-04-08T06:31:59.219Z,36.4
2018-04-08T06:33:03.587Z,36.4
2018-04-08T06:34:07.856Z,36.5
2018-04-08T06:35:13.218Z,36.5
2018-04-08T06:36:18.482Z,36.4
2018-04-08T06:37:22.839Z,36.4
2018-04-08T06:38:27.118Z,36.4
2018-04-08T06:39:32.379Z,36.5
2018-04-08T06:40:37.637Z,36.5
2018-04-08T06:41:42.005Z,36.5
2018-04-08T06:42:46.262Z,36.5
2018-04-08T06:43:51.525Z,36.4
2018-04-08T06:44:56.881Z,36.5
2018-04-08T06:46:01.242Z,36.5
2018-04-08T06:47:05.602Z,36.5
2018-04-08T06:48:10.998Z,36.5
2018-04-08T06:49:15.263Z,36.5
2018-04-08T06:50:19.621Z,36.4
2018-04-08T06:51:24.877Z,36.5
2018-04-08T06:52:30.237Z,37.1
2018-04-08T06:53:34.509Z,36.5
2018-04-08T06:54:38.780Z,36.5
2018-04-08T06:55:43.038Z,36.5
2018-04-08T06:56:48.300Z,36.5
2018-04-08T06:57:56.460Z,36.4
2018-04-08T06:59:01.733Z,36.4
2018-04-08T07:00:06.100Z,36.4
2018-04-08T07:01:10.454Z,36.5
2018-04-08T07:02:15.814Z,36.5
2018-04-08T07:03:21.081Z,36.5
2018-04-08T07:04:25.363Z,36.5
2018-04-08T07:05:29.726Z,36.5
2018-04-08T07:06:35.090Z,36.6
2018-04-08T07:07:39.348Z,36.5
2018-04-08T07:08:43.622Z,36.4
2018-04-08T07:09:47.887Z,36.6
2018-04-08T07:10:53.187Z,36.5
2018-04-08T07:11:58.566Z,36.6
2018-04-08T07:13:02.834Z,36.5
2018-04-08T07:14:06.991Z,36.6
2018-04-08T07:15:12.254Z,36.6
2018-04-08T07:16:17.530Z,36.6
2018-04-08T07:17:22.904Z,36.6
2018-04-08T07:18:27.273Z,36.6
2018-04-08T07:19:32.456Z,36.7
2018-04-08T07:20:37.722Z,36.7
2018-04-08T07:21:43.086Z,36.7
2018-04-08T07:22:47.347Z,36.7
2018-04-08T07:23:51.721Z,36.7
2018-04-08T07:24:56.887Z,36.8
2018-04-08T07:26:02.256Z,36.8
2018-04-08T07:27:06.621Z,36.8
2018-04-08T07:28:10.897Z,36.9
2018-04-08T07:29:16.159Z,36.9
2018-04-08T07:30:21.416Z,36.9
2018-04-08T07:31:25.884Z,36.9
2018-04-08T07:32:30.143Z,36.9
2018-04-08T07:33:35.417Z,36.9
2018-04-08T07:34:40.755Z,36.9
2018-04-08T07:35:45.094Z,36.9
2018-04-08T07:36:49.428Z,36.9
2018-04-08T07:37:54.888Z,36.8
2018-04-08T07:38:59.415Z,36.5
2018-04-08T07:40:04.775Z,36.3
2018-04-08T07:41:13.037Z,35.9
2018-04-08T07:42:18.299Z,36.2
2018-04-08T07:43:25.561Z,35.3
2018-04-08T07:44:29.920Z,35.4
2018-04-08T07:45:35.184Z,35.1
2018-04-08T07:46:40.446Z,35
2018-04-08T07:47:45.714Z,34.8
2018-04-08T07:48:49.985Z,34.9
2018-04-08T07:49:54.181Z,34.7
2018-04-08T07:50:59.452Z,34.7
2018-04-08T07:52:04.817Z,34.4
2018-04-08T07:53:09.088Z,34.4
2018-04-08T07:54:13.247Z,34.4
2018-04-08T07:55:17.409Z,34.4
2018-04-08T07:56:22.769Z,34.4
2018-04-08T07:57:28.034Z,34.2
2018-04-08T07:58:35.312Z,34.1
2018-04-08T07:59:39.573Z,33.9
2018-04-08T08:00:43.730Z,34.1
2018-04-08T08:01:48.102Z,34
2018-04-08T08:02:53.461Z,34
2018-04-08T08:03:57.833Z,34
2018-04-08T08:05:02.295Z,34.4
2018-04-08T08:06:07.556Z,34.4
2018-04-08T08:07:12.813Z,34.4
2018-04-08T08:08:16.989Z,34.4
2018-04-08T08:09:21.364Z,35.1
2018-04-08T08:10:26.624Z,34.4
2018-04-08T08:11:32.009Z,34.4
2018-04-08T08:12:36.283Z,34.3
2018-04-08T08:13:40.553Z,34.4
2018-04-08T08:14:45.815Z,34.4
2018-04-08T08:15:51.184Z,34.4
2018-04-08T08:16:55.449Z,34.4
2018-04-08T08:17:59.711Z,34.4
2018-04-08T08:19:05.079Z,34.5
2018-04-08T08:20:10.349Z,34.4
2018-04-08T08:21:14.707Z,34.4
2018-04-08T08:22:18.965Z,34.4
2018-04-08T08:23:24.237Z,34.4
2018-04-08T08:24:29.499Z,34.4
2018-04-08T08:25:34.764Z,34.4
2018-04-08T08:26:39.125Z,34.4
2018-04-08T08:27:43.386Z,34.4
2018-04-08T08:28:48.653Z,34.2
2018-04-08T08:29:53.920Z,34.4
2018-04-08T08:30:58.283Z,34.4
2018-04-08T08:32:02.641Z,34.4
2018-04-08T08:33:08.007Z,34.4
2018-04-08T08:34:13.171Z,34.4
2018-04-08T08:35:17.429Z,34.3
2018-04-08T08:36:21.794Z,34.3
2018-04-08T08:37:27.158Z,34.9
2018-04-08T08:38:32.430Z,34.4
2018-04-08T08:39:36.730Z,34.3
2018-04-08T08:40:40.991Z,34.3
2018-04-08T08:41:46.393Z,34.3
2018-04-08T08:42:51.558Z,34.3
2018-04-08T08:43:56.927Z,34.4
2018-04-08T08:45:01.294Z,34.4
2018-04-08T08:46:06.660Z,34.4
2018-04-08T08:47:12.029Z,34.2
2018-04-08T08:48:16.342Z,34.4
2018-04-08T08:49:20.706Z,34.4
2018-04-08T08:50:25.974Z,34.3
2018-04-08T08:51:31.241Z,34.3
2018-04-08T08:52:35.600Z,35
2018-04-08T08:53:39.966Z,34
2018-04-08T08:54:45.232Z,34.3
2018-04-08T08:55:50.598Z,34.3
2018-04-08T08:56:54.956Z,34.3
2018-04-08T08:58:00.246Z,34.3
2018-04-08T08:59:08.516Z,34.2
2018-04-08T09:00:13.779Z,34.3
2018-04-08T09:01:18.037Z,34.3
2018-04-08T09:02:22.301Z,34.3
2018-04-08T09:03:27.579Z,34.3
2018-04-08T09:04:32.943Z,34.3
2018-04-08T09:05:37.306Z,34.3
2018-04-08T09:06:41.617Z,34.3
2018-04-08T09:07:46.839Z,34.3
2018-04-08T09:08:52.106Z,34.4
2018-04-08T09:09:57.367Z,34.3
2018-04-08T09:11:01.624Z,34.3
2018-04-08T09:12:05.790Z,34.3
2018-04-08T09:13:10.153Z,34.3
2018-04-08T09:14:15.512Z,34.3
2018-04-08T09:15:19.774Z,34.2
2018-04-08T09:16:24.038Z,34.3
2018-04-08T09:17:29.306Z,34.3
2018-04-08T09:18:34.574Z,34.3
2018-04-08T09:19:39.839Z,34.3
2018-04-08T09:20:44.198Z,34.3
2018-04-08T09:21:48.561Z,34.3
2018-04-08T09:22:53.720Z,34.3
2018-04-08T09:23:59.086Z,33.9
2018-04-08T09:25:03.444Z,34.2
2018-04-08T09:26:07.702Z,34.2
2018-04-08T09:27:12.968Z,34.1
2018-04-08T09:28:18.382Z,34.2
2018-04-08T09:29:22.593Z,34.3
2018-04-08T09:30:26.852Z,34.2
2018-04-08T09:31:32.111Z,34.2
2018-04-08T09:32:37.376Z,34.3
2018-04-08T09:33:42.643Z,34
2018-04-08T09:34:46.903Z,34.2
2018-04-08T09:35:51.060Z,34.9
2018-04-08T09:36:55.426Z,34.2
2018-04-08T09:38:00.693Z,34.2
2018-04-08T09:39:05.985Z,34.4
2018-04-08T09:40:10.249Z,34.2
2018-04-08T09:41:14.420Z,34.2
2018-04-08T09:42:19.680Z,34.4
2018-04-08T09:43:25.046Z,34.4
2018-04-08T09:44:29.418Z,34.5
2018-04-08T09:45:33.697Z,34.4
2018-04-08T09:46:38.962Z,34.4
2018-04-08T09:47:44.331Z,34.2
2018-04-08T09:48:48.605Z,34.3
2018-04-08T09:49:52.869Z,34.1
2018-04-08T09:50:58.140Z,34.1
2018-04-08T09:52:03.419Z,34.1
2018-04-08T09:53:08.795Z,34.1
2018-04-08T09:54:13.286Z,34.1
2018-04-08T09:55:18.628Z,34.1
2018-04-08T09:56:24.090Z,34
2018-04-08T09:57:28.430Z,34
2018-04-08T09:58:32.999Z,33.9
2018-04-08T09:59:41.465Z,33.9
2018-04-08T10:00:45.935Z,33.7
2018-04-08T10:01:51.303Z,33.7
2018-04-08T10:02:55.679Z,33.5
2018-04-08T10:04:03.048Z,33.5
2018-04-08T10:05:08.419Z,33.4
2018-04-08T10:06:12.688Z,33.3
2018-04-08T10:07:16.953Z,33.1
2018-04-08T10:08:21.224Z,33.2
2018-04-08T10:09:26.388Z,33.2
2018-04-08T10:10:31.650Z,33.2
2018-04-08T10:11:35.934Z,33.2
2018-04-08T10:12:40.194Z,33.4
2018-04-08T10:13:44.567Z,34.1
2018-04-08T10:14:49.835Z,33.4
2018-04-08T10:15:54.094Z,33.6
2018-04-08T10:16:58.256Z,33.7
2018-04-08T10:18:02.530Z,33.9
2018-04-08T10:19:07.796Z,33.9
2018-04-08T10:20:13.155Z,33.9
2018-04-08T10:21:17.420Z,34
2018-04-08T10:22:21.682Z,34.2
2018-04-08T10:23:26.965Z,34.3
2018-04-08T10:24:32.329Z,34.3
2018-04-08T10:25:36.646Z,34.4
2018-04-08T10:27:00.489Z,34.4
2018-04-08T10:28:05.849Z,34.3
2018-04-08T10:29:11.284Z,34.5
2018-04-08T10:30:15.529Z,34.3
2018-04-08T10:31:19.888Z,34.4
2018-04-08T10:32:25.158Z,34.4
2018-04-08T10:33:33.330Z,34.4
2018-04-08T10:34:38.693Z,34.4
2018-04-08T10:35:42.960Z,34.4
2018-04-08T10:36:47.322Z,34.4
2018-04-08T10:37:52.584Z,34.4
2018-04-08T10:38:57.958Z,34.5
2018-04-08T10:40:02.329Z,34.5
2018-04-08T10:41:07.607Z,34.5
2018-04-08T10:42:12.869Z,34.5
2018-04-08T10:43:18.161Z,34.6
2018-04-08T10:44:22.520Z,34.6
2018-04-08T10:45:27.797Z,34.7
2018-04-08T10:46:33.062Z,34.9
2018-04-08T10:47:38.222Z,35
2018-04-08T10:48:42.599Z,35.3
2018-04-08T10:49:46.867Z,35.3
2018-04-08T10:50:52.227Z,35.2
2018-04-08T10:51:57.535Z,35.2
2018-04-08T10:53:01.803Z,35.2
2018-04-08T10:54:06.066Z,35.2
2018-04-08T10:55:11.329Z,35.2
2018-04-08T10:56:16.587Z,35.1
2018-04-08T10:57:21.848Z,35.1
2018-04-08T10:58:26.216Z,35
2018-04-08T10:59:30.477Z,35
2018-04-08T11:00:38.839Z,34.9
2018-04-08T11:01:44.095Z,34.9
2018-04-08T11:02:48.458Z,34.9
2018-04-08T11:03:52.628Z,35
2018-04-08T11:04:57.958Z,34.8
2018-04-08T11:06:03.097Z,34.8
2018-04-08T11:07:08.358Z,34.8
2018-04-08T11:08:12.724Z,34.8
2018-04-08T11:09:16.989Z,34.7
2018-04-08T11:10:22.346Z,34.6
2018-04-08T11:11:27.706Z,34.6
2018-04-08T11:12:31.967Z,35.3
2018-04-08T11:13:36.335Z,34.6
2018-04-08T11:14:41.597Z,34.6
2018-04-08T11:15:46.856Z,34.6
2018-04-08T11:16:51.134Z,34.8
2018-04-08T11:17:55.408Z,34.8
2018-04-08T11:19:00.673Z,34.8
2018-04-08T11:20:05.938Z,34.8
2018-04-08T11:21:11.405Z,34.7
2018-04-08T11:22:15.673Z,34.7
2018-04-08T11:23:20.954Z,34.4
2018-04-08T11:24:27.214Z,34.4
2018-04-08T11:25:32.473Z,34.3
2018-04-08T11:26:36.733Z,34.1
2018-04-08T11:27:45.095Z,33.9
2018-04-08T11:28:50.464Z,33.9
2018-04-08T11:29:55.731Z,33.7
2018-04-08T11:30:59.993Z,33.7
2018-04-08T11:32:04.361Z,33.5
2018-04-08T11:33:09.637Z,33.2
2018-04-08T11:34:14.898Z,33.1
2018-04-08T11:35:20.266Z,32.8
2018-04-08T11:36:24.533Z,32.8
2018-04-08T11:37:29.797Z,32.2
2018-04-08T11:38:35.064Z,32.1
2018-04-08T11:39:40.256Z,32.2
2018-04-08T11:40:44.623Z,32
2018-04-08T11:41:49.026Z,31.7
2018-04-08T11:42:54.288Z,31.8
2018-04-08T11:43:59.553Z,31.9
2018-04-08T11:45:03.825Z,31.8
2018-04-08T11:46:08.187Z,31.8
2018-04-08T11:47:13.562Z,31.5
2018-04-08T11:48:18.878Z,31.3
2018-04-08T11:49:23.147Z,31.2
2018-04-08T11:50:27.409Z,31.3
2018-04-08T11:51:32.771Z,31.5
2018-04-08T11:52:38.028Z,31.7
2018-04-08T11:53:42.308Z,31.7
2018-04-08T11:54:46.673Z,31.7
2018-04-08T11:55:52.037Z,31.7
2018-04-08T11:56:57.302Z,31.7
2018-04-08T11:58:01.698Z,31.7
2018-04-08T11:59:06.867Z,31.2
2018-04-08T12:00:12.231Z,31.1
2018-04-08T12:01:17.489Z,30.9
2018-04-08T12:02:21.753Z,30.9
2018-04-08T12:03:26.127Z,31
2018-04-08T12:04:31.496Z,31.2
2018-04-08T12:05:36.764Z,31.5
2018-04-08T12:06:41.028Z,31.6
2018-04-08T12:07:45.394Z,31.7
2018-04-08T12:08:50.668Z,31.8
2018-04-08T12:09:56.037Z,31.7
2018-04-08T12:11:00.299Z,31.8
2018-04-08T12:12:04.662Z,31.9
2018-04-08T12:13:09.928Z,32
2018-04-08T12:14:15.284Z,32.1
2018-04-08T12:15:19.642Z,32.2
2018-04-08T12:16:24.901Z,32.2
2018-04-08T12:17:30.159Z,32.3
2018-04-08T12:18:35.541Z,32.4
2018-04-08T12:19:39.811Z,32.5
2018-04-08T12:20:47.183Z,32.5
2018-04-08T12:21:52.449Z,32.5
2018-04-08T12:22:57.716Z,32.5
2018-04-08T12:24:04.990Z,32.6
2018-04-08T12:25:09.454Z,32.7
2018-04-08T12:26:14.719Z,32.8
2018-04-08T12:27:19.984Z,32.8
2018-04-08T12:28:30.254Z,32.9
2018-04-08T12:29:34.410Z,32.9
2018-04-08T12:30:38.768Z,33.6
2018-04-08T12:31:44.034Z,33
2018-04-08T12:32:49.198Z,33
2018-04-08T12:33:54.565Z,33.1
2018-04-08T12:34:58.830Z,33.1
2018-04-08T12:36:03.087Z,33.1
2018-04-08T12:37:08.441Z,33.1
2018-04-08T12:38:13.808Z,33.1
2018-04-08T12:39:18.071Z,33.2
2018-04-08T12:40:22.368Z,33.2
2018-04-08T12:41:27.626Z,33.3
2018-04-08T12:42:32.881Z,33.3
2018-04-08T12:43:37.151Z,33.5
2018-04-08T12:44:41.511Z,33.6
2018-04-08T12:45:46.868Z,33.6
2018-04-08T12:46:52.124Z,34.2
2018-04-08T12:47:56.288Z,33.6
2018-04-08T12:49:00.563Z,33.6
2018-04-08T12:50:04.823Z,33.6
2018-04-08T12:51:10.083Z,33.6
2018-04-08T12:52:15.369Z,33.6
2018-04-08T12:53:19.633Z,33.7
2018-04-08T12:54:24.022Z,33.7
2018-04-08T12:55:29.276Z,33.8
2018-04-08T12:56:34.532Z,33.7
2018-04-08T12:57:39.887Z,33.6
2018-04-08T12:58:44.160Z,33.6
2018-04-08T12:59:49.446Z,33.6
2018-04-08T13:00:54.711Z,33.6
2018-04-08T13:01:59.976Z,33.6
2018-04-08T13:03:04.333Z,33.6
2018-04-08T13:04:08.649Z,33.8
2018-04-08T13:05:14.016Z,33.6
2018-04-08T13:06:19.177Z,33.6
2018-04-08T13:07:23.346Z,33.6
2018-04-08T13:08:27.729Z,33.6
2018-04-08T13:09:32.992Z,33.6
2018-04-08T13:10:38.358Z,33.6
2018-04-08T13:11:42.625Z,33.6
2018-04-08T13:12:46.891Z,33.6
2018-04-08T13:13:52.159Z,33.8
2018-04-08T13:14:57.423Z,33.6
2018-04-08T13:16:02.682Z,33.6
2018-04-08T13:17:06.945Z,33.6
2018-04-08T13:18:11.318Z,33.6
2018-04-08T13:19:16.590Z,33.6
2018-04-08T13:20:21.958Z,33.6
2018-04-08T13:21:26.321Z,33.6
2018-04-08T13:22:30.577Z,33.6
2018-04-08T13:23:35.843Z,33.6
2018-04-08T13:24:41.106Z,33.6
2018-04-08T13:25:45.477Z,33.6
2018-04-08T13:26:49.738Z,33.6
2018-04-08T13:27:55.002Z,33.6
2018-04-08T13:29:03.275Z,33.8
2018-04-08T13:30:08.562Z,33.6
2018-04-08T13:31:12.864Z,33.6
2018-04-08T13:32:17.128Z,33.6
2018-04-08T13:33:22.403Z,33.6
2018-04-08T13:34:27.666Z,33.6
2018-04-08T13:35:32.931Z,33.6
2018-04-08T13:36:37.288Z,33.6
2018-04-08T13:37:41.653Z,33.6
2018-04-08T13:38:46.920Z,33.8
2018-04-08T13:39:52.176Z,33.6
2018-04-08T13:40:56.435Z,33.6
2018-04-08T13:42:00.691Z,33.6
2018-04-08T13:43:06.047Z,34.3
2018-04-08T13:44:11.438Z,33.8
2018-04-08T13:45:18.697Z,33.6
2018-04-08T13:46:22.956Z,33.6
2018-04-08T13:47:28.212Z,33.6
2018-04-08T13:48:33.574Z,33.6
2018-04-08T13:49:40.835Z,33.6
2018-04-08T13:50:45.207Z,33.6
2018-04-08T13:51:50.477Z,33.6
2018-04-08T13:52:55.734Z,33.6
2018-04-08T13:54:01.003Z,33.9
2018-04-08T13:55:05.269Z,33.6
2018-04-08T13:56:09.528Z,33.7
2018-04-08T13:57:14.910Z,33.6
2018-04-08T13:58:20.214Z,33.7
2018-04-08T13:59:24.378Z,33.7
2018-04-08T14:00:28.747Z,33.8
2018-04-08T14:01:34.009Z,33.8
2018-04-08T14:02:39.374Z,33.8
2018-04-08T14:03:43.746Z,33.8
2018-04-08T14:04:48.007Z,33.9
2018-04-08T14:05:53.263Z,33.9
2018-04-08T14:06:58.627Z,33.8
2018-04-08T14:08:02.999Z,33.7
2018-04-08T14:09:07.293Z,33.8
2018-04-08T14:10:12.560Z,33.6
2018-04-08T14:11:17.847Z,33.6
2018-04-08T14:12:22.110Z,33.5
2018-04-08T14:13:29.481Z,33.6
2018-04-08T14:14:36.744Z,33.5
2018-04-08T14:15:42.110Z,33.5
2018-04-08T14:16:47.378Z,33.5
2018-04-08T14:17:51.741Z,33.5
2018-04-08T14:18:56.014Z,33.5
2018-04-08T14:20:01.282Z,33.5
2018-04-08T14:21:06.646Z,33.5
2018-04-08T14:22:14.012Z,33.5
2018-04-08T14:23:18.506Z,33.5
2018-04-08T14:24:23.848Z,33.6
2018-04-08T14:25:28.312Z,33.5